sensor_id;sensor_type;location;lat;lon;timestamp;P1;durP1;ratioP1;P2;durP2;ratioP2
78752;SDS011;68072;51.688;7.842;2024-03-06T00:01:50;17.00;;;8.82;;
78752;SDS011;68072;51.688;7.842;2024-03-06T00:04:23;18.90;;;8.60;;
78752;SDS011;68072;51.688;7.842;2024-03-06T00:06:48;15.18;;;6.93;;
78752;SDS011;68072;51.688;7.842;2024-03-06T00:09:16;18.55;;;9.30;;
78752;SDS011;68072;51.688;7.842;2024-03-06T00:14:08;14.60;;;7.10;;
78752;SDS011;68072;51.688;7.842;2024-03-06T00:16:33;14.77;;;8.57;;
78752;SDS011;68072;51.688;7.842;2024-03-06T00:18:59;13.80;;;7.87;;
78752;SDS011;68072;51.688;7.842;2024-03-06T00:21:24;21.00;;;8.77;;
78752;SDS011;68072;51.688;7.842;2024-03-06T00:23:49;15.10;;;7.97;;
78752;SDS011;68072;51.688;7.842;2024-03-06T00:26:14;15.97;;;9.03;;
78752;SDS011;68072;51.688;7.842;2024-03-06T00:28:40;18.47;;;8.43;;
78752;SDS011;68072;51.688;7.842;2024-03-06T00:31:05;16.17;;;8.27;;
78752;SDS011;68072;51.688;7.842;2024-03-06T00:33:30;18.02;;;8.95;;
78752;SDS011;68072;51.688;7.842;2024-03-06T00:35:56;14.87;;;7.93;;
78752;SDS011;68072;51.688;7.842;2024-03-06T00:38:21;14.73;;;7.67;;
78752;SDS011;68072;51.688;7.842;2024-03-06T00:40:46;19.33;;;9.02;;
78752;SDS011;68072;51.688;7.842;2024-03-06T00:43:12;18.25;;;8.85;;
78752;SDS011;68072;51.688;7.842;2024-03-06T00:45:37;14.73;;;8.07;;
78752;SDS011;68072;51.688;7.842;2024-03-06T00:48:02;17.33;;;9.03;;
78752;SDS011;68072;51.688;7.842;2024-03-06T00:50:28;17.60;;;9.73;;
78752;SDS011;68072;51.688;7.842;2024-03-06T00:52:53;17.43;;;8.83;;
78752;SDS011;68072;51.688;7.842;2024-03-06T00:55:19;18.40;;;9.77;;
78752;SDS011;68072;51.688;7.842;2024-03-06T00:57:44;20.03;;;9.30;;
78752;SDS011;68072;51.688;7.842;2024-03-06T01:00:09;16.63;;;8.87;;
78752;SDS011;68072;51.688;7.842;2024-03-06T01:02:38;16.88;;;9.82;;
78752;SDS011;68072;51.688;7.842;2024-03-06T01:05:03;17.45;;;8.50;;
78752;SDS011;68072;51.688;7.842;2024-03-06T01:07:29;17.95;;;9.40;;
78752;SDS011;68072;51.688;7.842;2024-03-06T01:09:55;20.30;;;9.88;;
78752;SDS011;68072;51.688;7.842;2024-03-06T01:12:22;19.77;;;9.77;;
78752;SDS011;68072;51.688;7.842;2024-03-06T01:14:47;21.10;;;9.63;;
78752;SDS011;68072;51.688;7.842;2024-03-06T01:17:12;23.30;;;9.20;;
78752;SDS011;68072;51.688;7.842;2024-03-06T01:19:38;18.67;;;9.23;;
78752;SDS011;68072;51.688;7.842;2024-03-06T01:22:03;23.03;;;11.07;;
78752;SDS011;68072;51.688;7.842;2024-03-06T01:24:28;23.03;;;11.40;;
78752;SDS011;68072;51.688;7.842;2024-03-06T01:26:53;21.53;;;9.73;;
78752;SDS011;68072;51.688;7.842;2024-03-06T01:29:18;25.87;;;11.90;;
78752;SDS011;68072;51.688;7.842;2024-03-06T01:31:44;29.10;;;12.70;;
78752;SDS011;68072;51.688;7.842;2024-03-06T01:34:11;27.73;;;11.30;;
78752;SDS011;68072;51.688;7.842;2024-03-06T01:36:37;26.52;;;12.13;;
78752;SDS011;68072;51.688;7.842;2024-03-06T01:39:02;22.37;;;10.83;;
78752;SDS011;68072;51.688;7.842;2024-03-06T01:41:28;21.83;;;11.45;;
78752;SDS011;68072;51.688;7.842;2024-03-06T01:43:53;32.00;;;11.30;;
78752;SDS011;68072;51.688;7.842;2024-03-06T01:46:18;18.97;;;9.10;;
78752;SDS011;68072;51.688;7.842;2024-03-06T01:48:43;21.90;;;11.37;;
78752;SDS011;68072;51.688;7.842;2024-03-06T01:51:09;21.00;;;10.93;;
78752;SDS011;68072;51.688;7.842;2024-03-06T01:53:34;26.42;;;11.57;;
78752;SDS011;68072;51.688;7.842;2024-03-06T01:56:00;19.95;;;9.73;;
78752;SDS011;68072;51.688;7.842;2024-03-06T01:58:25;26.33;;;11.47;;
78752;SDS011;68072;51.688;7.842;2024-03-06T02:00:51;24.85;;;11.15;;
78752;SDS011;68072;51.688;7.842;2024-03-06T02:03:17;22.00;;;11.25;;
78752;SDS011;68072;51.688;7.842;2024-03-06T02:05:42;22.30;;;11.43;;
78752;SDS011;68072;51.688;7.842;2024-03-06T02:08:08;27.30;;;12.80;;
78752;SDS011;68072;51.688;7.842;2024-03-06T02:10:33;31.90;;;12.20;;
78752;SDS011;68072;51.688;7.842;2024-03-06T02:12:59;25.67;;;12.05;;
78752;SDS011;68072;51.688;7.842;2024-03-06T02:15:24;25.20;;;11.40;;
78752;SDS011;68072;51.688;7.842;2024-03-06T02:17:49;28.53;;;11.50;;
78752;SDS011;68072;51.688;7.842;2024-03-06T02:20:16;24.75;;;11.95;;
78752;SDS011;68072;51.688;7.842;2024-03-06T02:22:41;27.07;;;12.57;;
78752;SDS011;68072;51.688;7.842;2024-03-06T02:25:06;27.93;;;13.00;;
78752;SDS011;68072;51.688;7.842;2024-03-06T02:27:32;28.60;;;12.88;;
78752;SDS011;68072;51.688;7.842;2024-03-06T02:29:57;21.60;;;12.15;;
78752;SDS011;68072;51.688;7.842;2024-03-06T02:32:23;23.93;;;11.23;;
78752;SDS011;68072;51.688;7.842;2024-03-06T02:34:49;21.55;;;11.45;;
78752;SDS011;68072;51.688;7.842;2024-03-06T02:37:14;22.70;;;12.30;;
78752;SDS011;68072;51.688;7.842;2024-03-06T02:39:39;24.77;;;11.37;;
78752;SDS011;68072;51.688;7.842;2024-03-06T02:42:05;28.77;;;11.90;;
78752;SDS011;68072;51.688;7.842;2024-03-06T02:44:30;27.20;;;12.20;;
78752;SDS011;68072;51.688;7.842;2024-03-06T02:46:55;25.83;;;12.83;;
78752;SDS011;68072;51.688;7.842;2024-03-06T02:49:20;28.00;;;13.07;;
78752;SDS011;68072;51.688;7.842;2024-03-06T02:51:45;28.63;;;12.97;;
78752;SDS011;68072;51.688;7.842;2024-03-06T02:54:11;26.10;;;12.23;;
78752;SDS011;68072;51.688;7.842;2024-03-06T02:56:36;24.17;;;12.93;;
78752;SDS011;68072;51.688;7.842;2024-03-06T02:59:01;26.93;;;12.70;;
78752;SDS011;68072;51.688;7.842;2024-03-06T03:01:28;27.75;;;13.43;;
78752;SDS011;68072;51.688;7.842;2024-03-06T03:03:53;27.85;;;13.20;;
78752;SDS011;68072;51.688;7.842;2024-03-06T03:06:18;29.47;;;13.23;;
78752;SDS011;68072;51.688;7.842;2024-03-06T03:08:44;29.77;;;13.57;;
78752;SDS011;68072;51.688;7.842;2024-03-06T03:11:09;23.70;;;12.33;;
78752;SDS011;68072;51.688;7.842;2024-03-06T03:13:35;29.20;;;12.35;;
78752;SDS011;68072;51.688;7.842;2024-03-06T03:16:00;25.83;;;13.23;;
78752;SDS011;68072;51.688;7.842;2024-03-06T03:18:27;25.25;;;12.80;;
78752;SDS011;68072;51.688;7.842;2024-03-06T03:20:52;31.23;;;13.07;;
78752;SDS011;68072;51.688;7.842;2024-03-06T03:23:18;29.77;;;13.57;;
78752;SDS011;68072;51.688;7.842;2024-03-06T03:25:47;24.75;;;12.32;;
78752;SDS011;68072;51.688;7.842;2024-03-06T03:28:12;28.27;;;12.57;;
78752;SDS011;68072;51.688;7.842;2024-03-06T03:30:38;32.95;;;13.82;;
78752;SDS011;68072;51.688;7.842;2024-03-06T03:33:03;24.58;;;13.05;;
78752;SDS011;68072;51.688;7.842;2024-03-06T03:35:29;30.50;;;14.13;;
78752;SDS011;68072;51.688;7.842;2024-03-06T03:37:54;26.60;;;12.30;;
78752;SDS011;68072;51.688;7.842;2024-03-06T03:40:20;23.98;;;12.80;;
78752;SDS011;68072;51.688;7.842;2024-03-06T03:42:45;24.38;;;12.88;;
78752;SDS011;68072;51.688;7.842;2024-03-06T03:45:11;28.23;;;13.50;;
78752;SDS011;68072;51.688;7.842;2024-03-06T03:47:36;30.23;;;13.03;;
78752;SDS011;68072;51.688;7.842;2024-03-06T03:50:03;27.63;;;13.10;;
78752;SDS011;68072;51.688;7.842;2024-03-06T03:54:54;23.98;;;11.55;;
78752;SDS011;68072;51.688;7.842;2024-03-06T03:57:19;25.43;;;12.40;;
78752;SDS011;68072;51.688;7.842;2024-03-06T03:59:44;24.67;;;12.10;;
78752;SDS011;68072;51.688;7.842;2024-03-06T04:02:10;27.23;;;12.67;;
78752;SDS011;68072;51.688;7.842;2024-03-06T04:04:35;23.47;;;12.93;;
78752;SDS011;68072;51.688;7.842;2024-03-06T04:07:00;27.13;;;12.53;;
78752;SDS011;68072;51.688;7.842;2024-03-06T04:09:29;26.08;;;12.70;;
78752;SDS011;68072;51.688;7.842;2024-03-06T04:11:54;23.70;;;12.27;;
78752;SDS011;68072;51.688;7.842;2024-03-06T04:14:19;27.03;;;11.87;;
78752;SDS011;68072;51.688;7.842;2024-03-06T04:16:47;22.67;;;11.97;;
78752;SDS011;68072;51.688;7.842;2024-03-06T04:19:13;21.42;;;11.93;;
78752;SDS011;68072;51.688;7.842;2024-03-06T04:21:41;20.90;;;10.97;;
78752;SDS011;68072;51.688;7.842;2024-03-06T04:24:07;29.40;;;11.73;;
78752;SDS011;68072;51.688;7.842;2024-03-06T04:26:33;25.10;;;13.23;;
78752;SDS011;68072;51.688;7.842;2024-03-06T04:28:58;24.23;;;12.37;;
78752;SDS011;68072;51.688;7.842;2024-03-06T04:31:23;27.57;;;12.80;;
78752;SDS011;68072;51.688;7.842;2024-03-06T04:33:48;22.63;;;12.27;;
78752;SDS011;68072;51.688;7.842;2024-03-06T04:36:14;31.10;;;12.33;;
78752;SDS011;68072;51.688;7.842;2024-03-06T04:38:39;23.93;;;12.23;;
78752;SDS011;68072;51.688;7.842;2024-03-06T04:41:05;25.05;;;12.45;;
78752;SDS011;68072;51.688;7.842;2024-03-06T04:43:30;25.73;;;12.25;;
78752;SDS011;68072;51.688;7.842;2024-03-06T04:45:55;25.63;;;12.17;;
78752;SDS011;68072;51.688;7.842;2024-03-06T04:48:21;27.23;;;13.60;;
78752;SDS011;68072;51.688;7.842;2024-03-06T04:50:46;26.73;;;12.50;;
78752;SDS011;68072;51.688;7.842;2024-03-06T04:53:11;24.30;;;12.87;;
78752;SDS011;68072;51.688;7.842;2024-03-06T04:55:37;31.30;;;14.13;;
78752;SDS011;68072;51.688;7.842;2024-03-06T04:58:02;27.70;;;13.88;;
78752;SDS011;68072;51.688;7.842;2024-03-06T05:00:28;32.65;;;14.85;;
78752;SDS011;68072;51.688;7.842;2024-03-06T05:02:54;29.75;;;14.32;;
78752;SDS011;68072;51.688;7.842;2024-03-06T05:05:20;30.48;;;14.23;;
78752;SDS011;68072;51.688;7.842;2024-03-06T05:07:46;31.63;;;14.93;;
78752;SDS011;68072;51.688;7.842;2024-03-06T05:10:11;30.50;;;13.23;;
78752;SDS011;68072;51.688;7.842;2024-03-06T05:12:36;30.77;;;15.10;;
78752;SDS011;68072;51.688;7.842;2024-03-06T05:15:01;37.70;;;13.97;;
78752;SDS011;68072;51.688;7.842;2024-03-06T05:17:27;30.70;;;14.77;;
78752;SDS011;68072;51.688;7.842;2024-03-06T05:19:53;34.40;;;15.80;;
78752;SDS011;68072;51.688;7.842;2024-03-06T05:24:44;38.37;;;15.90;;
78752;SDS011;68072;51.688;7.842;2024-03-06T05:27:10;41.70;;;16.50;;
78752;SDS011;68072;51.688;7.842;2024-03-06T05:29:38;35.25;;;15.52;;
78752;SDS011;68072;51.688;7.842;2024-03-06T05:32:03;30.70;;;14.68;;
78752;SDS011;68072;51.688;7.842;2024-03-06T05:34:29;33.60;;;15.70;;
78752;SDS011;68072;51.688;7.842;2024-03-06T05:36:54;31.95;;;15.70;;
78752;SDS011;68072;51.688;7.842;2024-03-06T05:39:20;34.87;;;15.53;;
78752;SDS011;68072;51.688;7.842;2024-03-06T05:41:45;39.23;;;16.43;;
78752;SDS011;68072;51.688;7.842;2024-03-06T05:44:10;37.33;;;15.70;;
78752;SDS011;68072;51.688;7.842;2024-03-06T05:46:36;35.70;;;15.98;;
78752;SDS011;68072;51.688;7.842;2024-03-06T05:49:01;38.13;;;17.37;;
78752;SDS011;68072;51.688;7.842;2024-03-06T05:51:27;34.72;;;15.65;;
78752;SDS011;68072;51.688;7.842;2024-03-06T05:53:52;34.95;;;16.02;;
78752;SDS011;68072;51.688;7.842;2024-03-06T05:56:18;37.67;;;17.67;;
78752;SDS011;68072;51.688;7.842;2024-03-06T05:58:43;32.92;;;15.57;;
78752;SDS011;68072;51.688;7.842;2024-03-06T06:01:11;35.60;;;15.77;;
78752;SDS011;68072;51.688;7.842;2024-03-06T06:03:36;35.17;;;16.63;;
78752;SDS011;68072;51.688;7.842;2024-03-06T06:06:01;40.87;;;17.40;;
78752;SDS011;68072;51.688;7.842;2024-03-06T06:08:28;35.97;;;17.33;;
78752;SDS011;68072;51.688;7.842;2024-03-06T06:10:53;34.25;;;17.45;;
78752;SDS011;68072;51.688;7.842;2024-03-06T06:13:19;41.38;;;18.00;;
78752;SDS011;68072;51.688;7.842;2024-03-06T06:15:45;37.35;;;16.33;;
78752;SDS011;68072;51.688;7.842;2024-03-06T06:18:10;32.85;;;16.50;;
78752;SDS011;68072;51.688;7.842;2024-03-06T06:20:35;37.63;;;17.43;;
78752;SDS011;68072;51.688;7.842;2024-03-06T06:23:01;40.80;;;17.93;;
78752;SDS011;68072;51.688;7.842;2024-03-06T06:25:26;31.33;;;16.20;;
78752;SDS011;68072;51.688;7.842;2024-03-06T06:27:52;34.58;;;17.02;;
78752;SDS011;68072;51.688;7.842;2024-03-06T06:30:17;34.30;;;15.20;;
78752;SDS011;68072;51.688;7.842;2024-03-06T06:32:42;38.73;;;16.57;;
78752;SDS011;68072;51.688;7.842;2024-03-06T06:35:08;32.75;;;15.23;;
78752;SDS011;68072;51.688;7.842;2024-03-06T06:37:34;38.35;;;16.33;;
78752;SDS011;68072;51.688;7.842;2024-03-06T06:39:59;35.53;;;16.83;;
78752;SDS011;68072;51.688;7.842;2024-03-06T06:42:25;33.25;;;17.33;;
78752;SDS011;68072;51.688;7.842;2024-03-06T06:44:50;45.20;;;17.17;;
78752;SDS011;68072;51.688;7.842;2024-03-06T06:47:16;49.50;;;19.50;;
78752;SDS011;68072;51.688;7.842;2024-03-06T06:49:42;44.78;;;18.35;;
78752;SDS011;68072;51.688;7.842;2024-03-06T06:52:07;43.53;;;18.37;;
78752;SDS011;68072;51.688;7.842;2024-03-06T06:54:32;43.50;;;17.65;;
78752;SDS011;68072;51.688;7.842;2024-03-06T06:56:58;53.17;;;21.10;;
78752;SDS011;68072;51.688;7.842;2024-03-06T06:59:23;46.23;;;19.40;;
78752;SDS011;68072;51.688;7.842;2024-03-06T07:01:48;42.57;;;18.00;;
78752;SDS011;68072;51.688;7.842;2024-03-06T07:04:13;40.00;;;19.43;;
78752;SDS011;68072;51.688;7.842;2024-03-06T07:06:41;44.17;;;19.05;;
78752;SDS011;68072;51.688;7.842;2024-03-06T07:09:07;47.60;;;19.02;;
78752;SDS011;68072;51.688;7.842;2024-03-06T07:11:35;46.50;;;18.30;;
78752;SDS011;68072;51.688;7.842;2024-03-06T07:14:00;48.50;;;20.53;;
78752;SDS011;68072;51.688;7.842;2024-03-06T07:16:25;52.40;;;21.57;;
78752;SDS011;68072;51.688;7.842;2024-03-06T07:18:50;52.00;;;22.37;;
78752;SDS011;68072;51.688;7.842;2024-03-06T07:21:16;65.37;;;23.33;;
78752;SDS011;68072;51.688;7.842;2024-03-06T07:23:43;65.07;;;23.38;;
78752;SDS011;68072;51.688;7.842;2024-03-06T07:26:08;62.97;;;24.03;;
78752;SDS011;68072;51.688;7.842;2024-03-06T07:28:33;71.63;;;25.10;;
78752;SDS011;68072;51.688;7.842;2024-03-06T07:30:58;69.13;;;25.03;;
78752;SDS011;68072;51.688;7.842;2024-03-06T07:33:24;69.80;;;24.83;;
78752;SDS011;68072;51.688;7.842;2024-03-06T07:35:49;56.90;;;22.13;;
78752;SDS011;68072;51.688;7.842;2024-03-06T07:38:14;47.73;;;21.67;;
78752;SDS011;68072;51.688;7.842;2024-03-06T07:40:40;44.33;;;19.95;;
78752;SDS011;68072;51.688;7.842;2024-03-06T07:43:05;44.00;;;19.33;;
78752;SDS011;68072;51.688;7.842;2024-03-06T07:45:31;44.75;;;19.95;;
78752;SDS011;68072;51.688;7.842;2024-03-06T07:47:56;47.73;;;20.30;;
78752;SDS011;68072;51.688;7.842;2024-03-06T07:50:21;43.20;;;19.10;;
78752;SDS011;68072;51.688;7.842;2024-03-06T07:52:47;45.20;;;19.63;;
78752;SDS011;68072;51.688;7.842;2024-03-06T07:55:12;37.05;;;17.45;;
78752;SDS011;68072;51.688;7.842;2024-03-06T07:57:37;45.57;;;20.30;;
78752;SDS011;68072;51.688;7.842;2024-03-06T08:00:03;48.20;;;21.30;;
78752;SDS011;68072;51.688;7.842;2024-03-06T08:02:39;38.38;;;19.10;;
78752;SDS011;68072;51.688;7.842;2024-03-06T08:05:07;43.72;;;19.48;;
78752;SDS011;68072;51.688;7.842;2024-03-06T08:07:34;39.70;;;18.42;;
78752;SDS011;68072;51.688;7.842;2024-03-06T08:10:00;47.20;;;20.40;;
78752;SDS011;68072;51.688;7.842;2024-03-06T08:12:25;34.90;;;18.67;;
78752;SDS011;68072;51.688;7.842;2024-03-06T08:14:50;34.17;;;17.53;;
78752;SDS011;68072;51.688;7.842;2024-03-06T08:17:16;37.55;;;18.15;;
78752;SDS011;68072;51.688;7.842;2024-03-06T08:19:41;42.33;;;19.53;;
78752;SDS011;68072;51.688;7.842;2024-03-06T08:22:06;38.87;;;17.17;;
78752;SDS011;68072;51.688;7.842;2024-03-06T08:24:31;44.83;;;17.70;;
78752;SDS011;68072;51.688;7.842;2024-03-06T08:26:56;38.17;;;18.63;;
78752;SDS011;68072;51.688;7.842;2024-03-06T08:29:22;35.87;;;17.13;;
78752;SDS011;68072;51.688;7.842;2024-03-06T08:31:47;38.78;;;17.17;;
78752;SDS011;68072;51.688;7.842;2024-03-06T08:34:13;39.83;;;18.30;;
78752;SDS011;68072;51.688;7.842;2024-03-06T08:36:38;39.30;;;18.60;;
78752;SDS011;68072;51.688;7.842;2024-03-06T08:39:03;38.07;;;18.03;;
78752;SDS011;68072;51.688;7.842;2024-03-06T08:43:56;43.95;;;18.42;;
78752;SDS011;68072;51.688;7.842;2024-03-06T08:46:21;40.00;;;18.00;;
78752;SDS011;68072;51.688;7.842;2024-03-06T08:48:47;41.83;;;19.47;;
78752;SDS011;68072;51.688;7.842;2024-03-06T08:51:12;38.70;;;18.37;;
78752;SDS011;68072;51.688;7.842;2024-03-06T08:53:37;44.63;;;19.73;;
78752;SDS011;68072;51.688;7.842;2024-03-06T08:56:04;45.28;;;18.80;;
78752;SDS011;68072;51.688;7.842;2024-03-06T08:58:29;38.05;;;18.63;;
78752;SDS011;68072;51.688;7.842;2024-03-06T09:00:54;46.03;;;21.17;;
78752;SDS011;68072;51.688;7.842;2024-03-06T09:03:20;45.50;;;18.23;;
78752;SDS011;68072;51.688;7.842;2024-03-06T09:05:45;43.80;;;18.17;;
78752;SDS011;68072;51.688;7.842;2024-03-06T09:08:10;44.00;;;17.63;;
78752;SDS011;68072;51.688;7.842;2024-03-06T09:10:36;44.95;;;19.65;;
78752;SDS011;68072;51.688;7.842;2024-03-06T09:13:02;44.73;;;20.00;;
78752;SDS011;68072;51.688;7.842;2024-03-06T09:15:27;37.63;;;19.80;;
78752;SDS011;68072;51.688;7.842;2024-03-06T09:17:52;39.43;;;18.63;;
78752;SDS011;68072;51.688;7.842;2024-03-06T09:20:17;40.97;;;18.77;;
78752;SDS011;68072;51.688;7.842;2024-03-06T09:22:43;39.97;;;18.50;;
78752;SDS011;68072;51.688;7.842;2024-03-06T09:25:08;39.72;;;20.27;;
78752;SDS011;68072;51.688;7.842;2024-03-06T09:27:33;37.00;;;18.90;;
78752;SDS011;68072;51.688;7.842;2024-03-06T09:29:59;37.63;;;17.43;;
78752;SDS011;68072;51.688;7.842;2024-03-06T09:32:24;36.20;;;18.80;;
78752;SDS011;68072;51.688;7.842;2024-03-06T09:34:51;51.13;;;21.58;;
78752;SDS011;68072;51.688;7.842;2024-03-06T09:37:16;39.30;;;18.00;;
78752;SDS011;68072;51.688;7.842;2024-03-06T09:39:41;39.57;;;18.53;;
78752;SDS011;68072;51.688;7.842;2024-03-06T09:42:07;38.33;;;17.90;;
78752;SDS011;68072;51.688;7.842;2024-03-06T09:44:32;37.55;;;16.63;;
78752;SDS011;68072;51.688;7.842;2024-03-06T09:46:59;40.42;;;19.70;;
78752;SDS011;68072;51.688;7.842;2024-03-06T09:49:24;46.55;;;19.10;;
78752;SDS011;68072;51.688;7.842;2024-03-06T09:51:50;39.33;;;19.15;;
78752;SDS011;68072;51.688;7.842;2024-03-06T09:54:17;46.15;;;20.13;;
78752;SDS011;68072;51.688;7.842;2024-03-06T09:56:48;41.60;;;18.00;;
78752;SDS011;68072;51.688;7.842;2024-03-06T09:59:14;36.53;;;19.05;;
78752;SDS011;68072;51.688;7.842;2024-03-06T10:01:41;39.70;;;19.45;;
78752;SDS011;68072;51.688;7.842;2024-03-06T10:04:19;44.00;;;19.42;;
78752;SDS011;68072;51.688;7.842;2024-03-06T10:06:45;42.40;;;18.52;;
78752;SDS011;68072;51.688;7.842;2024-03-06T10:09:11;38.22;;;18.65;;
78752;SDS011;68072;51.688;7.842;2024-03-06T10:11:39;39.43;;;19.10;;
78752;SDS011;68072;51.688;7.842;2024-03-06T10:14:05;40.33;;;18.00;;
78752;SDS011;68072;51.688;7.842;2024-03-06T10:16:30;39.20;;;18.53;;
78752;SDS011;68072;51.688;7.842;2024-03-06T10:18:55;41.50;;;18.83;;
78752;SDS011;68072;51.688;7.842;2024-03-06T10:21:30;31.40;;;14.77;;
78752;SDS011;68072;51.688;7.842;2024-03-06T10:23:59;32.78;;;13.77;;
78752;SDS011;68072;51.688;7.842;2024-03-06T10:26:25;32.35;;;15.02;;
78752;SDS011;68072;51.688;7.842;2024-03-06T10:28:50;29.87;;;14.37;;
78752;SDS011;68072;51.688;7.842;2024-03-06T10:31:26;32.78;;;15.32;;
78752;SDS011;68072;51.688;7.842;2024-03-06T10:33:51;28.92;;;14.52;;
78752;SDS011;68072;51.688;7.842;2024-03-06T10:36:18;28.23;;;14.98;;
78752;SDS011;68072;51.688;7.842;2024-03-06T10:38:43;26.60;;;12.53;;
78752;SDS011;68072;51.688;7.842;2024-03-06T10:41:09;26.08;;;13.20;;
78752;SDS011;68072;51.688;7.842;2024-03-06T10:43:38;27.02;;;12.82;;
78752;SDS011;68072;51.688;7.842;2024-03-06T10:46:05;29.92;;;13.38;;
78752;SDS011;68072;51.688;7.842;2024-03-06T10:48:31;25.05;;;13.38;;
78752;SDS011;68072;51.688;7.842;2024-03-06T10:50:56;22.88;;;11.55;;
78752;SDS011;68072;51.688;7.842;2024-03-06T10:53:22;22.08;;;11.73;;
78752;SDS011;68072;51.688;7.842;2024-03-06T10:55:48;23.20;;;11.90;;
78752;SDS011;68072;51.688;7.842;2024-03-06T10:58:14;21.35;;;10.80;;
78752;SDS011;68072;51.688;7.842;2024-03-06T11:03:08;23.77;;;10.55;;
78752;SDS011;68072;51.688;7.842;2024-03-06T11:05:35;23.75;;;12.05;;
78752;SDS011;68072;51.688;7.842;2024-03-06T11:08:00;20.88;;;11.27;;
78752;SDS011;68072;51.688;7.842;2024-03-06T11:10:29;17.60;;;11.07;;
78752;SDS011;68072;51.688;7.842;2024-03-06T11:12:54;19.20;;;11.63;;
78752;SDS011;68072;51.688;7.842;2024-03-06T11:15:19;22.37;;;10.47;;
78752;SDS011;68072;51.688;7.842;2024-03-06T11:17:45;21.83;;;9.82;;
78752;SDS011;68072;51.688;7.842;2024-03-06T11:20:15;22.80;;;12.03;;
78752;SDS011;68072;51.688;7.842;2024-03-06T11:23:01;18.67;;;9.95;;
78752;SDS011;68072;51.688;7.842;2024-03-06T11:28:16;21.88;;;11.88;;
78752;SDS011;68072;51.688;7.842;2024-03-06T11:33:12;15.98;;;9.10;;
78752;SDS011;68072;51.688;7.842;2024-03-06T11:35:37;26.52;;;12.00;;
78752;SDS011;68072;51.688;7.842;2024-03-06T11:38:05;21.40;;;11.20;;
78752;SDS011;68072;51.688;7.842;2024-03-06T11:40:31;21.70;;;10.80;;
78752;SDS011;68072;51.688;7.842;2024-03-06T11:42:56;20.20;;;11.43;;
78752;SDS011;68072;51.688;7.842;2024-03-06T11:45:22;21.53;;;11.53;;
78752;SDS011;68072;51.688;7.842;2024-03-06T11:48:00;23.63;;;11.32;;
78752;SDS011;68072;51.688;7.842;2024-03-06T11:50:26;21.73;;;11.52;;
78752;SDS011;68072;51.688;7.842;2024-03-06T11:52:51;21.90;;;11.43;;
78752;SDS011;68072;51.688;7.842;2024-03-06T11:55:16;23.67;;;12.07;;
78752;SDS011;68072;51.688;7.842;2024-03-06T11:57:41;22.43;;;11.63;;
78752;SDS011;68072;51.688;7.842;2024-03-06T12:00:07;18.88;;;11.02;;
78752;SDS011;68072;51.688;7.842;2024-03-06T12:02:36;21.88;;;11.82;;
78752;SDS011;68072;51.688;7.842;2024-03-06T12:05:02;22.65;;;11.85;;
78752;SDS011;68072;51.688;7.842;2024-03-06T12:09:52;21.27;;;11.70;;
78752;SDS011;68072;51.688;7.842;2024-03-06T12:12:18;18.45;;;10.18;;
78752;SDS011;68072;51.688;7.842;2024-03-06T12:14:43;24.57;;;10.93;;
78752;SDS011;68072;51.688;7.842;2024-03-06T12:17:12;26.03;;;12.87;;
78752;SDS011;68072;51.688;7.842;2024-03-06T12:19:39;27.55;;;13.82;;
78752;SDS011;68072;51.688;7.842;2024-03-06T12:22:07;23.98;;;11.15;;
78752;SDS011;68072;51.688;7.842;2024-03-06T12:24:33;22.15;;;10.57;;
78752;SDS011;68072;51.688;7.842;2024-03-06T12:26:59;22.50;;;10.60;;
78752;SDS011;68072;51.688;7.842;2024-03-06T12:29:27;27.85;;;12.93;;
78752;SDS011;68072;51.688;7.842;2024-03-06T12:31:53;18.92;;;11.07;;
78752;SDS011;68072;51.688;7.842;2024-03-06T12:34:18;23.87;;;10.27;;
78752;SDS011;68072;51.688;7.842;2024-03-06T12:36:43;21.63;;;10.87;;
78752;SDS011;68072;51.688;7.842;2024-03-06T12:39:08;21.77;;;10.80;;
78752;SDS011;68072;51.688;7.842;2024-03-06T12:41:40;19.67;;;9.15;;
78752;SDS011;68072;51.688;7.842;2024-03-06T12:44:06;19.92;;;10.40;;
78752;SDS011;68072;51.688;7.842;2024-03-06T12:46:34;20.15;;;9.73;;
78752;SDS011;68072;51.688;7.842;2024-03-06T12:48:59;15.23;;;8.90;;
78752;SDS011;68072;51.688;7.842;2024-03-06T12:51:25;18.88;;;9.18;;
78752;SDS011;68072;51.688;7.842;2024-03-06T12:53:50;18.50;;;10.03;;
78752;SDS011;68072;51.688;7.842;2024-03-06T12:56:16;17.75;;;10.18;;
78752;SDS011;68072;51.688;7.842;2024-03-06T12:58:41;21.08;;;10.82;;
78752;SDS011;68072;51.688;7.842;2024-03-06T13:01:07;19.03;;;10.53;;
78752;SDS011;68072;51.688;7.842;2024-03-06T13:03:32;15.73;;;9.70;;
78752;SDS011;68072;51.688;7.842;2024-03-06T13:05:57;18.08;;;10.40;;
78752;SDS011;68072;51.688;7.842;2024-03-06T13:08:23;18.75;;;11.00;;
78752;SDS011;68072;51.688;7.842;2024-03-06T13:13:14;19.40;;;10.25;;
78752;SDS011;68072;51.688;7.842;2024-03-06T13:15:39;22.13;;;10.53;;
78752;SDS011;68072;51.688;7.842;2024-03-06T13:18:05;19.50;;;10.13;;
78752;SDS011;68072;51.688;7.842;2024-03-06T13:20:31;18.67;;;10.20;;
78752;SDS011;68072;51.688;7.842;2024-03-06T13:22:56;22.73;;;11.07;;
78752;SDS011;68072;51.688;7.842;2024-03-06T13:25:21;23.60;;;10.87;;
78752;SDS011;68072;51.688;7.842;2024-03-06T13:27:46;17.83;;;9.27;;
78752;SDS011;68072;51.688;7.842;2024-03-06T13:30:12;17.50;;;9.52;;
78752;SDS011;68072;51.688;7.842;2024-03-06T13:32:37;22.42;;;10.00;;
78752;SDS011;68072;51.688;7.842;2024-03-06T13:35:03;20.17;;;11.02;;
78752;SDS011;68072;51.688;7.842;2024-03-06T13:37:28;21.83;;;10.50;;
78752;SDS011;68072;51.688;7.842;2024-03-06T13:39:54;19.27;;;9.77;;
78752;SDS011;68072;51.688;7.842;2024-03-06T13:42:23;18.65;;;8.98;;
78752;SDS011;68072;51.688;7.842;2024-03-06T13:44:48;19.13;;;9.83;;
78752;SDS011;68072;51.688;7.842;2024-03-06T13:47:14;18.33;;;9.43;;
78752;SDS011;68072;51.688;7.842;2024-03-06T13:49:41;21.42;;;9.15;;
78752;SDS011;68072;51.688;7.842;2024-03-06T13:52:08;19.75;;;10.07;;
78752;SDS011;68072;51.688;7.842;2024-03-06T13:54:37;20.25;;;9.75;;
78752;SDS011;68072;51.688;7.842;2024-03-06T13:57:03;19.75;;;9.52;;
78752;SDS011;68072;51.688;7.842;2024-03-06T13:59:31;17.53;;;9.23;;
78752;SDS011;68072;51.688;7.842;2024-03-06T14:01:56;20.33;;;9.55;;
78752;SDS011;68072;51.688;7.842;2024-03-06T14:04:22;18.02;;;8.45;;
78752;SDS011;68072;51.688;7.842;2024-03-06T14:06:47;19.58;;;9.98;;
78752;SDS011;68072;51.688;7.842;2024-03-06T14:09:13;17.45;;;8.80;;
78752;SDS011;68072;51.688;7.842;2024-03-06T14:11:39;17.63;;;9.98;;
78752;SDS011;68072;51.688;7.842;2024-03-06T14:14:05;20.67;;;10.43;;
78752;SDS011;68072;51.688;7.842;2024-03-06T14:16:30;21.33;;;10.02;;
78752;SDS011;68072;51.688;7.842;2024-03-06T14:18:56;21.70;;;10.80;;
78752;SDS011;68072;51.688;7.842;2024-03-06T14:21:21;18.07;;;10.17;;
78752;SDS011;68072;51.688;7.842;2024-03-06T14:23:46;20.80;;;10.40;;
78752;SDS011;68072;51.688;7.842;2024-03-06T14:26:11;21.57;;;10.43;;
78752;SDS011;68072;51.688;7.842;2024-03-06T14:28:37;20.73;;;11.27;;
78752;SDS011;68072;51.688;7.842;2024-03-06T14:31:03;25.00;;;11.48;;
78752;SDS011;68072;51.688;7.842;2024-03-06T14:33:28;20.13;;;10.10;;
78752;SDS011;68072;51.688;7.842;2024-03-06T14:35:53;21.80;;;10.43;;
78752;SDS011;68072;51.688;7.842;2024-03-06T14:38:19;21.10;;;9.83;;